Tabora Airport

Airport
ICAO code: 
HTTB
IATA Code: 
TBO
Summary
ICAO Region: 
AFI
Territory: 
Location: 
Tabora, Tabora Region
Serving: 
Tabora
Elevation: 
3868 ft
Coordinates: 
Aerial View: 
5° 4' 36.912" S, 32° 49' 55.956" E
Airport BS: 
Bird Strike
Metar
Observation
HTTB 280700Z 08007KT 9999 SCT019 BKN070 21/18 Q1019 NOSIG
Station
Tabora Airport
Date/Time
2022-01-28 07:00:00
Wind direction
80°
Wind speed
07 kts
Lowest cloud amount
scattered clouds
Temperature
21°C
Dew point
18°C
Humidity
83%
QNH
1019 hPa
Weather condition
n/a

International airport serving Tabora, Tanzania.

Climatology

Tropical Savanna climate (Köppen climate classification Aw)

Airport map: 
Aerial View: 

SKYbrary Partners:

Safety knowledge contributed by: